sensor_id;sensor_type;location;lat;lon;timestamp;temperature;humidity
40932;DHT22;36257;46.052;12.540;2023-05-07T00:01:08;16.90;93.00
40932;DHT22;36257;46.052;12.540;2023-05-07T00:03:34;16.90;93.10
40932;DHT22;36257;46.052;12.540;2023-05-07T00:05:59;17.00;92.70
40932;DHT22;36257;46.052;12.540;2023-05-07T00:08:25;17.00;92.60
40932;DHT22;36257;46.052;12.540;2023-05-07T00:10:51;17.00;92.40
40932;DHT22;36257;46.052;12.540;2023-05-07T00:13:16;17.00;92.40
40932;DHT22;36257;46.052;12.540;2023-05-07T00:15:42;16.90;92.30
40932;DHT22;36257;46.052;12.540;2023-05-07T00:18:08;16.90;92.60
40932;DHT22;36257;46.052;12.540;2023-05-07T00:20:33;16.90;92.90
40932;DHT22;36257;46.052;12.540;2023-05-07T00:22:59;16.70;93.50
40932;DHT22;36257;46.052;12.540;2023-05-07T00:25:24;16.70;93.70
40932;DHT22;36257;46.052;12.540;2023-05-07T00:27:50;16.60;93.90
40932;DHT22;36257;46.052;12.540;2023-05-07T00:30:16;16.60;93.90
40932;DHT22;36257;46.052;12.540;2023-05-07T00:32:41;16.50;94.20
40932;DHT22;36257;46.052;12.540;2023-05-07T00:35:07;16.40;94.20
40932;DHT22;36257;46.052;12.540;2023-05-07T00:37:33;16.40;94.20
40932;DHT22;36257;46.052;12.540;2023-05-07T00:39:59;16.40;94.10
40932;DHT22;36257;46.052;12.540;2023-05-07T00:42:24;16.40;94.00
40932;DHT22;36257;46.052;12.540;2023-05-07T00:44:50;16.50;93.80
40932;DHT22;36257;46.052;12.540;2023-05-07T00:47:16;16.50;93.80
40932;DHT22;36257;46.052;12.540;2023-05-07T00:49:43;16.50;93.70
40932;DHT22;36257;46.052;12.540;2023-05-07T00:52:11;16.50;93.90
40932;DHT22;36257;46.052;12.540;2023-05-07T00:54:38;16.40;94.20
40932;DHT22;36257;46.052;12.540;2023-05-07T00:57:06;16.40;94.30
40932;DHT22;36257;46.052;12.540;2023-05-07T00:59:32;16.40;93.70
40932;DHT22;36257;46.052;12.540;2023-05-07T01:01:58;16.30;93.50
40932;DHT22;36257;46.052;12.540;2023-05-07T01:04:25;16.40;93.40
40932;DHT22;36257;46.052;12.540;2023-05-07T01:06:52;16.30;93.70
40932;DHT22;36257;46.052;12.540;2023-05-07T01:09:19;16.40;93.90
40932;DHT22;36257;46.052;12.540;2023-05-07T01:11:47;16.30;94.10
40932;DHT22;36257;46.052;12.540;2023-05-07T01:14:13;16.30;94.10
40932;DHT22;36257;46.052;12.540;2023-05-07T01:16:38;16.30;93.90
40932;DHT22;36257;46.052;12.540;2023-05-07T01:19:07;16.30;93.70
40932;DHT22;36257;46.052;12.540;2023-05-07T01:21:33;16.20;93.80
40932;DHT22;36257;46.052;12.540;2023-05-07T01:24:02;16.30;93.70
40932;DHT22;36257;46.052;12.540;2023-05-07T01:26:29;16.20;93.50
40932;DHT22;36257;46.052;12.540;2023-05-07T01:28:55;16.20;93.30
40932;DHT22;36257;46.052;12.540;2023-05-07T01:31:21;16.20;93.30
40932;DHT22;36257;46.052;12.540;2023-05-07T01:33:48;16.20;93.30
40932;DHT22;36257;46.052;12.540;2023-05-07T01:36:15;16.20;93.10
40932;DHT22;36257;46.052;12.540;2023-05-07T01:38:43;16.20;93.00
40932;DHT22;36257;46.052;12.540;2023-05-07T01:41:09;16.10;93.10
40932;DHT22;36257;46.052;12.540;2023-05-07T01:43:35;16.10;93.10
40932;DHT22;36257;46.052;12.540;2023-05-07T01:46:02;16.10;93.00
40932;DHT22;36257;46.052;12.540;2023-05-07T01:48:29;16.10;93.00
40932;DHT22;36257;46.052;12.540;2023-05-07T01:50:55;16.10;93.20
40932;DHT22;36257;46.052;12.540;2023-05-07T01:53:21;16.00;93.30
40932;DHT22;36257;46.052;12.540;2023-05-07T01:55:46;16.00;93.40
40932;DHT22;36257;46.052;12.540;2023-05-07T01:58:12;16.00;93.40
40932;DHT22;36257;46.052;12.540;2023-05-07T02:00:38;16.00;93.60
40932;DHT22;36257;46.052;12.540;2023-05-07T02:03:03;16.00;93.50
40932;DHT22;36257;46.052;12.540;2023-05-07T02:05:29;15.90;93.70
40932;DHT22;36257;46.052;12.540;2023-05-07T02:07:55;15.90;93.70
40932;DHT22;36257;46.052;12.540;2023-05-07T02:10:21;15.90;93.70
40932;DHT22;36257;46.052;12.540;2023-05-07T02:12:46;15.90;93.60
40932;DHT22;36257;46.052;12.540;2023-05-07T02:15:12;15.90;93.30
40932;DHT22;36257;46.052;12.540;2023-05-07T02:18:02;15.90;93.60
40932;DHT22;36257;46.052;12.540;2023-05-07T02:20:28;16.00;93.40
40932;DHT22;36257;46.052;12.540;2023-05-07T02:22:54;15.90;93.40
40932;DHT22;36257;46.052;12.540;2023-05-07T02:25:19;15.90;93.50
40932;DHT22;36257;46.052;12.540;2023-05-07T02:27:45;16.00;93.40
40932;DHT22;36257;46.052;12.540;2023-05-07T02:30:11;15.90;93.30
40932;DHT22;36257;46.052;12.540;2023-05-07T02:32:36;15.80;93.40
40932;DHT22;36257;46.052;12.540;2023-05-07T02:35:02;15.70;93.80
40932;DHT22;36257;46.052;12.540;2023-05-07T02:37:28;15.70;94.00
40932;DHT22;36257;46.052;12.540;2023-05-07T02:39:53;15.60;94.40
40932;DHT22;36257;46.052;12.540;2023-05-07T02:42:19;15.50;94.90
40932;DHT22;36257;46.052;12.540;2023-05-07T02:44:45;15.50;95.20
40932;DHT22;36257;46.052;12.540;2023-05-07T02:47:10;15.50;95.10
40932;DHT22;36257;46.052;12.540;2023-05-07T02:49:38;15.50;95.00
40932;DHT22;36257;46.052;12.540;2023-05-07T02:52:04;15.50;95.00
40932;DHT22;36257;46.052;12.540;2023-05-07T02:54:29;15.60;94.70
40932;DHT22;36257;46.052;12.540;2023-05-07T02:56:55;15.70;94.40
40932;DHT22;36257;46.052;12.540;2023-05-07T02:59:21;15.70;94.60
40932;DHT22;36257;46.052;12.540;2023-05-07T03:01:47;15.70;94.60
40932;DHT22;36257;46.052;12.540;2023-05-07T03:04:13;15.70;94.60
40932;DHT22;36257;46.052;12.540;2023-05-07T03:06:39;15.60;94.70
40932;DHT22;36257;46.052;12.540;2023-05-07T03:09:05;15.60;94.90
40932;DHT22;36257;46.052;12.540;2023-05-07T03:11:30;15.50;94.90
40932;DHT22;36257;46.052;12.540;2023-05-07T03:13:56;15.50;95.00
40932;DHT22;36257;46.052;12.540;2023-05-07T03:16:21;15.60;94.90
40932;DHT22;36257;46.052;12.540;2023-05-07T03:18:47;15.60;94.80
40932;DHT22;36257;46.052;12.540;2023-05-07T03:21:13;15.50;95.10
40932;DHT22;36257;46.052;12.540;2023-05-07T03:23:38;15.50;95.20
40932;DHT22;36257;46.052;12.540;2023-05-07T03:26:04;15.50;94.70
40932;DHT22;36257;46.052;12.540;2023-05-07T03:28:30;15.70;93.60
40932;DHT22;36257;46.052;12.540;2023-05-07T03:30:56;15.90;92.60
40932;DHT22;36257;46.052;12.540;2023-05-07T03:33:21;16.00;92.20
40932;DHT22;36257;46.052;12.540;2023-05-07T03:35:47;16.10;92.10
40932;DHT22;36257;46.052;12.540;2023-05-07T03:38:13;16.30;91.20
40932;DHT22;36257;46.052;12.540;2023-05-07T03:40:38;16.40;90.90
40932;DHT22;36257;46.052;12.540;2023-05-07T03:43:04;16.40;91.40
40932;DHT22;36257;46.052;12.540;2023-05-07T03:45:29;16.30;91.80
40932;DHT22;36257;46.052;12.540;2023-05-07T03:47:55;16.20;92.30
40932;DHT22;36257;46.052;12.540;2023-05-07T03:50:21;16.20;92.50
40932;DHT22;36257;46.052;12.540;2023-05-07T03:52:46;16.10;93.70
40932;DHT22;36257;46.052;12.540;2023-05-07T03:55:12;15.90;94.20
40932;DHT22;36257;46.052;12.540;2023-05-07T03:57:37;15.90;94.70
40932;DHT22;36257;46.052;12.540;2023-05-07T04:00:03;15.80;94.90
40932;DHT22;36257;46.052;12.540;2023-05-07T04:02:30;15.70;95.40
40932;DHT22;36257;46.052;12.540;2023-05-07T04:04:56;15.60;95.60
40932;DHT22;36257;46.052;12.540;2023-05-07T04:07:21;15.60;95.70
40932;DHT22;36257;46.052;12.540;2023-05-07T04:09:47;15.60;95.70
40932;DHT22;36257;46.052;12.540;2023-05-07T04:12:13;15.70;95.60
40932;DHT22;36257;46.052;12.540;2023-05-07T04:14:38;15.70;95.60
40932;DHT22;36257;46.052;12.540;2023-05-07T04:17:04;15.80;95.20
40932;DHT22;36257;46.052;12.540;2023-05-07T04:19:33;15.90;95.10
40932;DHT22;36257;46.052;12.540;2023-05-07T04:21:58;15.90;95.40
40932;DHT22;36257;46.052;12.540;2023-05-07T04:24:24;15.90;95.50
40932;DHT22;36257;46.052;12.540;2023-05-07T04:26:50;16.00;95.30
40932;DHT22;36257;46.052;12.540;2023-05-07T04:29:16;16.00;95.60
40932;DHT22;36257;46.052;12.540;2023-05-07T04:31:42;16.10;95.70
40932;DHT22;36257;46.052;12.540;2023-05-07T04:34:10;16.10;95.30
40932;DHT22;36257;46.052;12.540;2023-05-07T04:36:37;16.40;94.90
40932;DHT22;36257;46.052;12.540;2023-05-07T04:39:03;16.50;94.90
40932;DHT22;36257;46.052;12.540;2023-05-07T04:41:29;16.50;94.70
40932;DHT22;36257;46.052;12.540;2023-05-07T04:43:54;16.60;94.50
40932;DHT22;36257;46.052;12.540;2023-05-07T04:46:20;16.60;94.80
40932;DHT22;36257;46.052;12.540;2023-05-07T04:48:46;16.60;94.80
40932;DHT22;36257;46.052;12.540;2023-05-07T04:51:12;16.50;94.80
40932;DHT22;36257;46.052;12.540;2023-05-07T04:53:37;16.40;95.30
40932;DHT22;36257;46.052;12.540;2023-05-07T04:56:03;16.30;95.60
40932;DHT22;36257;46.052;12.540;2023-05-07T04:58:29;16.40;95.70
40932;DHT22;36257;46.052;12.540;2023-05-07T05:00:57;16.40;95.70
40932;DHT22;36257;46.052;12.540;2023-05-07T05:03:23;16.40;96.00
40932;DHT22;36257;46.052;12.540;2023-05-07T05:05:50;16.30;96.20
40932;DHT22;36257;46.052;12.540;2023-05-07T05:08:16;16.30;96.30
40932;DHT22;36257;46.052;12.540;2023-05-07T05:10:42;16.30;96.20
40932;DHT22;36257;46.052;12.540;2023-05-07T05:13:09;16.30;96.10
40932;DHT22;36257;46.052;12.540;2023-05-07T05:15:35;16.40;95.70
40932;DHT22;36257;46.052;12.540;2023-05-07T05:18:01;16.50;95.80
40932;DHT22;36257;46.052;12.540;2023-05-07T05:20:26;16.70;96.00
40932;DHT22;36257;46.052;12.540;2023-05-07T05:22:52;16.80;95.90
40932;DHT22;36257;46.052;12.540;2023-05-07T05:25:18;17.00;95.70
40932;DHT22;36257;46.052;12.540;2023-05-07T05:27:43;17.20;95.60
40932;DHT22;36257;46.052;12.540;2023-05-07T05:30:09;17.40;95.70
40932;DHT22;36257;46.052;12.540;2023-05-07T05:32:35;17.50;96.00
40932;DHT22;36257;46.052;12.540;2023-05-07T05:35:01;17.70;96.40
40932;DHT22;36257;46.052;12.540;2023-05-07T05:37:26;17.90;96.10
40932;DHT22;36257;46.052;12.540;2023-05-07T05:39:52;18.10;96.60
40932;DHT22;36257;46.052;12.540;2023-05-07T05:42:20;18.40;95.40
40932;DHT22;36257;46.052;12.540;2023-05-07T05:44:45;18.60;93.50
40932;DHT22;36257;46.052;12.540;2023-05-07T05:47:11;18.90;92.70
40932;DHT22;36257;46.052;12.540;2023-05-07T05:49:37;19.30;89.50
40932;DHT22;36257;46.052;12.540;2023-05-07T05:52:02;19.40;89.80
40932;DHT22;36257;46.052;12.540;2023-05-07T05:54:28;19.60;90.00
40932;DHT22;36257;46.052;12.540;2023-05-07T05:56:54;19.80;87.40
40932;DHT22;36257;46.052;12.540;2023-05-07T05:59:19;19.90;86.20
40932;DHT22;36257;46.052;12.540;2023-05-07T06:01:45;20.00;87.20
40932;DHT22;36257;46.052;12.540;2023-05-07T06:04:11;20.10;86.40
40932;DHT22;36257;46.052;12.540;2023-05-07T06:06:37;20.10;86.10
40932;DHT22;36257;46.052;12.540;2023-05-07T06:09:02;20.10;84.20
40932;DHT22;36257;46.052;12.540;2023-05-07T06:11:28;20.20;85.40
40932;DHT22;36257;46.052;12.540;2023-05-07T06:13:54;20.10;84.60
40932;DHT22;36257;46.052;12.540;2023-05-07T06:16:19;20.20;85.00
40932;DHT22;36257;46.052;12.540;2023-05-07T06:18:45;20.30;84.40
40932;DHT22;36257;46.052;12.540;2023-05-07T06:21:13;20.40;87.00
40932;DHT22;36257;46.052;12.540;2023-05-07T06:23:38;20.50;85.50
40932;DHT22;36257;46.052;12.540;2023-05-07T06:26:06;20.70;86.00
40932;DHT22;36257;46.052;12.540;2023-05-07T06:28:32;20.80;85.60
40932;DHT22;36257;46.052;12.540;2023-05-07T06:31:18;20.90;85.20
40932;DHT22;36257;46.052;12.540;2023-05-07T06:33:48;21.10;83.10
40932;DHT22;36257;46.052;12.540;2023-05-07T06:36:13;21.20;84.80
40932;DHT22;36257;46.052;12.540;2023-05-07T06:38:39;21.40;83.70
40932;DHT22;36257;46.052;12.540;2023-05-07T06:41:06;21.50;83.70
40932;DHT22;36257;46.052;12.540;2023-05-07T06:43:32;21.60;81.50
40932;DHT22;36257;46.052;12.540;2023-05-07T06:45:58;21.90;84.10
40932;DHT22;36257;46.052;12.540;2023-05-07T06:48:23;22.10;84.00
40932;DHT22;36257;46.052;12.540;2023-05-07T06:50:50;22.10;83.40
40932;DHT22;36257;46.052;12.540;2023-05-07T06:53:15;22.10;83.50
40932;DHT22;36257;46.052;12.540;2023-05-07T06:55:41;22.20;83.60
40932;DHT22;36257;46.052;12.540;2023-05-07T06:58:07;22.20;83.40
40932;DHT22;36257;46.052;12.540;2023-05-07T07:00:32;22.00;83.20
40932;DHT22;36257;46.052;12.540;2023-05-07T07:02:58;21.90;85.10
40932;DHT22;36257;46.052;12.540;2023-05-07T07:05:25;21.70;85.00
40932;DHT22;36257;46.052;12.540;2023-05-07T07:07:51;21.60;85.50
40932;DHT22;36257;46.052;12.540;2023-05-07T07:10:20;21.80;84.60
40932;DHT22;36257;46.052;12.540;2023-05-07T07:12:46;21.80;85.40
40932;DHT22;36257;46.052;12.540;2023-05-07T07:15:13;22.00;83.90
40932;DHT22;36257;46.052;12.540;2023-05-07T07:17:38;22.10;83.50
40932;DHT22;36257;46.052;12.540;2023-05-07T07:20:05;22.20;83.70
40932;DHT22;36257;46.052;12.540;2023-05-07T07:22:31;22.30;83.70
40932;DHT22;36257;46.052;12.540;2023-05-07T07:24:57;22.10;84.50
40932;DHT22;36257;46.052;12.540;2023-05-07T07:30:44;22.50;84.30
40932;DHT22;36257;46.052;12.540;2023-05-07T07:33:10;22.50;82.50
40932;DHT22;36257;46.052;12.540;2023-05-07T07:35:36;22.50;83.40
40932;DHT22;36257;46.052;12.540;2023-05-07T07:38:01;22.50;81.30
40932;DHT22;36257;46.052;12.540;2023-05-07T07:40:27;22.50;82.60
40932;DHT22;36257;46.052;12.540;2023-05-07T07:42:53;22.60;82.10
40932;DHT22;36257;46.052;12.540;2023-05-07T07:45:20;22.70;80.40
40932;DHT22;36257;46.052;12.540;2023-05-07T07:47:46;22.60;82.90
40932;DHT22;36257;46.052;12.540;2023-05-07T07:50:12;22.80;82.60
40932;DHT22;36257;46.052;12.540;2023-05-07T07:52:38;22.70;80.60
40932;DHT22;36257;46.052;12.540;2023-05-07T07:55:04;22.90;80.00
40932;DHT22;36257;46.052;12.540;2023-05-07T07:57:31;23.20;81.30
40932;DHT22;36257;46.052;12.540;2023-05-07T07:59:57;23.10;76.70
40932;DHT22;36257;46.052;12.540;2023-05-07T08:02:23;23.30;78.20
40932;DHT22;36257;46.052;12.540;2023-05-07T08:04:49;23.20;75.00
40932;DHT22;36257;46.052;12.540;2023-05-07T08:07:18;23.40;77.80
40932;DHT22;36257;46.052;12.540;2023-05-07T08:09:46;23.70;76.70
40932;DHT22;36257;46.052;12.540;2023-05-07T08:12:12;23.60;76.70
40932;DHT22;36257;46.052;12.540;2023-05-07T08:14:38;23.80;75.40
40932;DHT22;36257;46.052;12.540;2023-05-07T08:17:04;23.80;73.00
40932;DHT22;36257;46.052;12.540;2023-05-07T08:19:31;23.80;73.80
40932;DHT22;36257;46.052;12.540;2023-05-07T08:22:03;24.00;76.80
40932;DHT22;36257;46.052;12.540;2023-05-07T08:35:11;24.40;75.70
40932;DHT22;36257;46.052;12.540;2023-05-07T08:56:26;24.70;73.20
40932;DHT22;36257;46.052;12.540;2023-05-07T14:55:30;25.30;71.30
40932;DHT22;36257;46.052;12.540;2023-05-07T14:58:40;25.30;70.40
40932;DHT22;36257;46.052;12.540;2023-05-07T15:01:44;25.30;71.80
40932;DHT22;36257;46.052;12.540;2023-05-07T15:04:11;25.40;73.10
40932;DHT22;36257;46.052;12.540;2023-05-07T15:45:41;25.50;73.30
40932;DHT22;36257;46.052;12.540;2023-05-07T15:48:08;25.50;74.20
40932;DHT22;36257;46.052;12.540;2023-05-07T15:50:37;25.50;74.50
40932;DHT22;36257;46.052;12.540;2023-05-07T15:53:03;25.40;75.00
40932;DHT22;36257;46.052;12.540;2023-05-07T15:55:30;25.20;75.20
40932;DHT22;36257;46.052;12.540;2023-05-07T15:57:57;25.00;76.30
40932;DHT22;36257;46.052;12.540;2023-05-07T16:00:25;24.90;76.70
40932;DHT22;36257;46.052;12.540;2023-05-07T16:02:52;24.90;76.40
40932;DHT22;36257;46.052;12.540;2023-05-07T16:07:54;24.80;77.20
40932;DHT22;36257;46.052;12.540;2023-05-07T16:10:22;24.70;78.50
40932;DHT22;36257;46.052;12.540;2023-05-07T16:12:48;24.60;79.40
40932;DHT22;36257;46.052;12.540;2023-05-07T16:15:14;24.50;80.00
40932;DHT22;36257;46.052;12.540;2023-05-07T16:17:39;24.40;80.60
40932;DHT22;36257;46.052;12.540;2023-05-07T16:20:06;24.20;80.80
40932;DHT22;36257;46.052;12.540;2023-05-07T16:22:33;24.20;81.20
40932;DHT22;36257;46.052;12.540;2023-05-07T16:25:01;24.20;81.60
40932;DHT22;36257;46.052;12.540;2023-05-07T16:27:27;24.20;81.40
40932;DHT22;36257;46.052;12.540;2023-05-07T16:29:53;24.20;81.80
40932;DHT22;36257;46.052;12.540;2023-05-07T16:32:21;24.20;81.90
40932;DHT22;36257;46.052;12.540;2023-05-07T16:34:48;24.20;82.20
40932;DHT22;36257;46.052;12.540;2023-05-07T16:37:17;24.20;82.30
40932;DHT22;36257;46.052;12.540;2023-05-07T16:39:43;24.20;80.80
40932;DHT22;36257;46.052;12.540;2023-05-07T16:42:15;24.20;81.80
40932;DHT22;36257;46.052;12.540;2023-05-07T16:44:41;24.10;81.70
40932;DHT22;36257;46.052;12.540;2023-05-07T16:47:11;24.00;82.00
40932;DHT22;36257;46.052;12.540;2023-05-07T16:49:40;23.90;82.00
40932;DHT22;36257;46.052;12.540;2023-05-07T16:52:28;23.90;82.60
40932;DHT22;36257;46.052;12.540;2023-05-07T16:54:57;23.80;82.50
40932;DHT22;36257;46.052;12.540;2023-05-07T16:57:28;23.80;82.80
40932;DHT22;36257;46.052;12.540;2023-05-07T17:00:03;23.80;82.80
40932;DHT22;36257;46.052;12.540;2023-05-07T17:02:32;23.70;83.00
40932;DHT22;36257;46.052;12.540;2023-05-07T17:05:04;23.70;82.90
40932;DHT22;36257;46.052;12.540;2023-05-07T17:07:34;23.70;83.10
40932;DHT22;36257;46.052;12.540;2023-05-07T17:10:02;23.70;82.90
40932;DHT22;36257;46.052;12.540;2023-05-07T17:12:35;23.70;83.10
40932;DHT22;36257;46.052;12.540;2023-05-07T17:15:22;23.60;83.50
40932;DHT22;36257;46.052;12.540;2023-05-07T17:18:12;23.60;83.70
40932;DHT22;36257;46.052;12.540;2023-05-07T17:20:41;23.60;83.80
40932;DHT22;36257;46.052;12.540;2023-05-07T17:23:29;23.50;83.90
40932;DHT22;36257;46.052;12.540;2023-05-07T17:26:01;23.50;84.40
40932;DHT22;36257;46.052;12.540;2023-05-07T17:31:10;23.50;84.90
40932;DHT22;36257;46.052;12.540;2023-05-07T17:33:39;23.40;85.60
40932;DHT22;36257;46.052;12.540;2023-05-07T17:36:06;23.20;85.80
40932;DHT22;36257;46.052;12.540;2023-05-07T17:38:33;23.10;86.20
40932;DHT22;36257;46.052;12.540;2023-05-07T17:41:00;22.90;86.50
40932;DHT22;36257;46.052;12.540;2023-05-07T17:43:26;22.90;86.40
40932;DHT22;36257;46.052;12.540;2023-05-07T17:45:52;22.80;86.70
40932;DHT22;36257;46.052;12.540;2023-05-07T17:48:18;22.60;86.60
40932;DHT22;36257;46.052;12.540;2023-05-07T17:50:44;22.50;86.20
40932;DHT22;36257;46.052;12.540;2023-05-07T17:53:10;22.30;86.30
40932;DHT22;36257;46.052;12.540;2023-05-07T17:55:41;22.10;87.10
40932;DHT22;36257;46.052;12.540;2023-05-07T17:58:08;21.90;87.90
40932;DHT22;36257;46.052;12.540;2023-05-07T18:00:35;21.80;88.10
40932;DHT22;36257;46.052;12.540;2023-05-07T18:03:01;21.80;88.40
40932;DHT22;36257;46.052;12.540;2023-05-07T18:05:27;21.80;88.20
40932;DHT22;36257;46.052;12.540;2023-05-07T18:07:53;21.80;88.70
40932;DHT22;36257;46.052;12.540;2023-05-07T18:10:19;21.80;88.10
40932;DHT22;36257;46.052;12.540;2023-05-07T18:12:45;21.80;88.10
40932;DHT22;36257;46.052;12.540;2023-05-07T18:15:11;21.80;88.00
40932;DHT22;36257;46.052;12.540;2023-05-07T18:17:38;21.90;87.80
40932;DHT22;36257;46.052;12.540;2023-05-07T18:20:04;21.90;87.90
40932;DHT22;36257;46.052;12.540;2023-05-07T18:22:32;21.70;88.70
40932;DHT22;36257;46.052;12.540;2023-05-07T18:24:58;21.70;88.70
40932;DHT22;36257;46.052;12.540;2023-05-07T18:27:24;21.70;88.30
40932;DHT22;36257;46.052;12.540;2023-05-07T18:29:50;21.70;88.00
40932;DHT22;36257;46.052;12.540;2023-05-07T18:32:16;21.60;88.30
40932;DHT22;36257;46.052;12.540;2023-05-07T18:34:42;21.50;88.60
40932;DHT22;36257;46.052;12.540;2023-05-07T18:37:08;21.50;88.50
40932;DHT22;36257;46.052;12.540;2023-05-07T18:39:37;21.40;89.20
40932;DHT22;36257;46.052;12.540;2023-05-07T18:42:02;21.20;89.50
40932;DHT22;36257;46.052;12.540;2023-05-07T18:44:30;21.10;89.70
40932;DHT22;36257;46.052;12.540;2023-05-07T18:46:56;21.10;89.10
40932;DHT22;36257;46.052;12.540;2023-05-07T18:49:22;21.10;89.00
40932;DHT22;36257;46.052;12.540;2023-05-07T18:51:48;21.10;89.00
40932;DHT22;36257;46.052;12.540;2023-05-07T18:54:14;21.10;88.90
40932;DHT22;36257;46.052;12.540;2023-05-07T18:56:40;21.10;88.90
40932;DHT22;36257;46.052;12.540;2023-05-07T18:59:06;21.10;89.00
40932;DHT22;36257;46.052;12.540;2023-05-07T19:01:32;21.10;89.50
40932;DHT22;36257;46.052;12.540;2023-05-07T19:03:58;21.00;89.90
40932;DHT22;36257;46.052;12.540;2023-05-07T19:06:23;20.90;90.00
40932;DHT22;36257;46.052;12.540;2023-05-07T19:08:50;20.80;90.00
40932;DHT22;36257;46.052;12.540;2023-05-07T19:11:15;20.90;89.90
40932;DHT22;36257;46.052;12.540;2023-05-07T19:13:41;20.80;90.20
40932;DHT22;36257;46.052;12.540;2023-05-07T19:16:07;20.60;90.00
40932;DHT22;36257;46.052;12.540;2023-05-07T19:18:36;20.60;90.80
40932;DHT22;36257;46.052;12.540;2023-05-07T19:21:02;20.60;90.80
40932;DHT22;36257;46.052;12.540;2023-05-07T19:23:28;20.50;90.90
40932;DHT22;36257;46.052;12.540;2023-05-07T19:25:54;20.40;90.90
40932;DHT22;36257;46.052;12.540;2023-05-07T19:28:19;20.40;91.00
40932;DHT22;36257;46.052;12.540;2023-05-07T19:30:45;20.40;91.20
40932;DHT22;36257;46.052;12.540;2023-05-07T19:33:14;20.30;91.10
40932;DHT22;36257;46.052;12.540;2023-05-07T19:35:42;20.30;91.10
40932;DHT22;36257;46.052;12.540;2023-05-07T19:38:08;20.30;91.20
40932;DHT22;36257;46.052;12.540;2023-05-07T19:40:33;20.20;91.40
40932;DHT22;36257;46.052;12.540;2023-05-07T19:42:59;20.20;91.70
40932;DHT22;36257;46.052;12.540;2023-05-07T19:45:25;20.10;91.50
40932;DHT22;36257;46.052;12.540;2023-05-07T19:47:50;20.10;91.40
40932;DHT22;36257;46.052;12.540;2023-05-07T19:50:16;20.10;91.20
40932;DHT22;36257;46.052;12.540;2023-05-07T19:52:42;20.00;91.40
40932;DHT22;36257;46.052;12.540;2023-05-07T19:55:08;19.90;91.70
40932;DHT22;36257;46.052;12.540;2023-05-07T19:57:33;19.80;92.30
40932;DHT22;36257;46.052;12.540;2023-05-07T19:59:59;19.70;92.60
40932;DHT22;36257;46.052;12.540;2023-05-07T20:02:25;19.70;92.30
40932;DHT22;36257;46.052;12.540;2023-05-07T20:04:51;19.70;91.90
40932;DHT22;36257;46.052;12.540;2023-05-07T20:07:17;19.80;91.70
40932;DHT22;36257;46.052;12.540;2023-05-07T20:09:42;19.70;91.60
40932;DHT22;36257;46.052;12.540;2023-05-07T20:12:08;19.70;92.00
40932;DHT22;36257;46.052;12.540;2023-05-07T20:14:33;19.70;92.10
40932;DHT22;36257;46.052;12.540;2023-05-07T20:17:00;19.60;92.30
40932;DHT22;36257;46.052;12.540;2023-05-07T20:19:25;19.60;92.40
40932;DHT22;36257;46.052;12.540;2023-05-07T20:21:52;19.50;92.70
40932;DHT22;36257;46.052;12.540;2023-05-07T20:24:18;19.50;92.60
40932;DHT22;36257;46.052;12.540;2023-05-07T20:26:44;19.50;92.40
40932;DHT22;36257;46.052;12.540;2023-05-07T20:29:10;19.50;93.10
40932;DHT22;36257;46.052;12.540;2023-05-07T20:31:36;19.40;93.00
40932;DHT22;36257;46.052;12.540;2023-05-07T20:34:01;19.40;93.20
40932;DHT22;36257;46.052;12.540;2023-05-07T20:36:27;19.40;93.20
40932;DHT22;36257;46.052;12.540;2023-05-07T20:38:53;19.30;93.20
40932;DHT22;36257;46.052;12.540;2023-05-07T20:41:19;19.20;93.30
40932;DHT22;36257;46.052;12.540;2023-05-07T20:43:46;19.10;93.50
40932;DHT22;36257;46.052;12.540;2023-05-07T20:46:13;19.00;94.10
40932;DHT22;36257;46.052;12.540;2023-05-07T20:48:38;19.00;94.20
40932;DHT22;36257;46.052;12.540;2023-05-07T20:51:04;19.00;94.00
40932;DHT22;36257;46.052;12.540;2023-05-07T20:53:30;19.00;93.90
40932;DHT22;36257;46.052;12.540;2023-05-07T20:55:57;18.90;94.10
40932;DHT22;36257;46.052;12.540;2023-05-07T20:58:23;18.80;94.60
40932;DHT22;36257;46.052;12.540;2023-05-07T21:00:52;18.70;94.90
40932;DHT22;36257;46.052;12.540;2023-05-07T21:03:17;18.60;95.40
40932;DHT22;36257;46.052;12.540;2023-05-07T21:05:52;18.60;95.50
40932;DHT22;36257;46.052;12.540;2023-05-07T21:08:19;18.50;95.60
40932;DHT22;36257;46.052;12.540;2023-05-07T21:10:45;18.60;95.20
40932;DHT22;36257;46.052;12.540;2023-05-07T21:13:10;18.50;95.20
40932;DHT22;36257;46.052;12.540;2023-05-07T21:15:36;18.40;95.60
40932;DHT22;36257;46.052;12.540;2023-05-07T21:18:02;18.40;95.50
40932;DHT22;36257;46.052;12.540;2023-05-07T21:20:30;18.40;95.50
40932;DHT22;36257;46.052;12.540;2023-05-07T21:22:56;18.40;95.40
40932;DHT22;36257;46.052;12.540;2023-05-07T21:25:22;18.40;95.20
40932;DHT22;36257;46.052;12.540;2023-05-07T21:27:47;18.40;95.20
40932;DHT22;36257;46.052;12.540;2023-05-07T21:30:13;18.30;95.40
40932;DHT22;36257;46.052;12.540;2023-05-07T21:32:39;18.30;95.60
40932;DHT22;36257;46.052;12.540;2023-05-07T21:35:05;18.30;95.80
40932;DHT22;36257;46.052;12.540;2023-05-07T21:37:31;18.30;95.80
40932;DHT22;36257;46.052;12.540;2023-05-07T21:39:57;18.30;95.90
40932;DHT22;36257;46.052;12.540;2023-05-07T21:42:23;18.30;95.50
40932;DHT22;36257;46.052;12.540;2023-05-07T21:44:48;18.40;95.00
40932;DHT22;36257;46.052;12.540;2023-05-07T21:47:14;18.30;95.20
40932;DHT22;36257;46.052;12.540;2023-05-07T21:49:40;18.20;95.50
40932;DHT22;36257;46.052;12.540;2023-05-07T21:52:13;18.20;95.40
40932;DHT22;36257;46.052;12.540;2023-05-07T21:54:39;18.20;95.30
40932;DHT22;36257;46.052;12.540;2023-05-07T21:57:05;18.20;95.20
40932;DHT22;36257;46.052;12.540;2023-05-07T21:59:31;18.20;95.10
40932;DHT22;36257;46.052;12.540;2023-05-07T22:01:59;18.20;95.00
40932;DHT22;36257;46.052;12.540;2023-05-07T22:04:24;18.10;95.20
40932;DHT22;36257;46.052;12.540;2023-05-07T22:06:50;18.10;95.40
40932;DHT22;36257;46.052;12.540;2023-05-07T22:09:16;18.10;95.50
40932;DHT22;36257;46.052;12.540;2023-05-07T22:11:42;18.10;95.40
40932;DHT22;36257;46.052;12.540;2023-05-07T22:14:07;18.20;95.40
40932;DHT22;36257;46.052;12.540;2023-05-07T22:16:33;18.20;95.10
40932;DHT22;36257;46.052;12.540;2023-05-07T22:18:59;18.10;95.00
40932;DHT22;36257;46.052;12.540;2023-05-07T22:21:24;18.10;95.40
40932;DHT22;36257;46.052;12.540;2023-05-07T22:23:50;18.00;95.50
40932;DHT22;36257;46.052;12.540;2023-05-07T22:26:15;17.90;95.80